sensor_id;sensor_type;location;lat;lon;timestamp;P1;durP1;ratioP1;P2;durP2;ratioP2
84638;SDS011;74869;51.924;5.712;2024-02-16T00:00:39;6.07;;;3.03;;
84638;SDS011;74869;51.924;5.712;2024-02-16T00:03:04;3.65;;;2.75;;
84638;SDS011;74869;51.924;5.712;2024-02-16T00:05:31;6.25;;;3.53;;
84638;SDS011;74869;51.924;5.712;2024-02-16T00:07:58;4.60;;;3.65;;
84638;SDS011;74869;51.924;5.712;2024-02-16T00:10:24;4.30;;;2.78;;
84638;SDS011;74869;51.924;5.712;2024-02-16T00:12:49;5.07;;;3.10;;
84638;SDS011;74869;51.924;5.712;2024-02-16T00:15:14;7.47;;;3.17;;
84638;SDS011;74869;51.924;5.712;2024-02-16T00:17:40;5.75;;;3.30;;
84638;SDS011;74869;51.924;5.712;2024-02-16T00:20:05;5.30;;;3.17;;
84638;SDS011;74869;51.924;5.712;2024-02-16T00:22:32;5.38;;;3.17;;
84638;SDS011;74869;51.924;5.712;2024-02-16T00:24:58;6.57;;;3.38;;
84638;SDS011;74869;51.924;5.712;2024-02-16T00:27:23;4.38;;;2.83;;
84638;SDS011;74869;51.924;5.712;2024-02-16T00:29:49;7.17;;;3.57;;
84638;SDS011;74869;51.924;5.712;2024-02-16T00:32:15;5.78;;;3.10;;
84638;SDS011;74869;51.924;5.712;2024-02-16T00:34:40;6.07;;;3.00;;
84638;SDS011;74869;51.924;5.712;2024-02-16T00:37:06;6.47;;;3.28;;
84638;SDS011;74869;51.924;5.712;2024-02-16T00:39:36;3.72;;;2.80;;
84638;SDS011;74869;51.924;5.712;2024-02-16T00:42:02;8.63;;;3.45;;
84638;SDS011;74869;51.924;5.712;2024-02-16T00:44:28;5.20;;;3.42;;
84638;SDS011;74869;51.924;5.712;2024-02-16T00:46:53;6.13;;;3.30;;
84638;SDS011;74869;51.924;5.712;2024-02-16T00:49:19;3.40;;;3.00;;
84638;SDS011;74869;51.924;5.712;2024-02-16T00:51:44;6.82;;;3.47;;
84638;SDS011;74869;51.924;5.712;2024-02-16T00:54:10;4.90;;;3.35;;
84638;SDS011;74869;51.924;5.712;2024-02-16T00:56:35;5.03;;;2.90;;
84638;SDS011;74869;51.924;5.712;2024-02-16T00:59:01;7.10;;;3.20;;
84638;SDS011;74869;51.924;5.712;2024-02-16T01:01:26;4.20;;;3.20;;
84638;SDS011;74869;51.924;5.712;2024-02-16T01:03:53;5.35;;;3.28;;
84638;SDS011;74869;51.924;5.712;2024-02-16T01:06:18;4.97;;;3.30;;
84638;SDS011;74869;51.924;5.712;2024-02-16T01:08:45;6.05;;;3.00;;
84638;SDS011;74869;51.924;5.712;2024-02-16T01:11:11;5.00;;;3.35;;
84638;SDS011;74869;51.924;5.712;2024-02-16T01:13:41;4.53;;;2.90;;
84638;SDS011;74869;51.924;5.712;2024-02-16T01:16:08;4.75;;;3.10;;
84638;SDS011;74869;51.924;5.712;2024-02-16T01:18:34;4.75;;;3.03;;
84638;SDS011;74869;51.924;5.712;2024-02-16T01:21:01;5.03;;;3.38;;
84638;SDS011;74869;51.924;5.712;2024-02-16T01:23:28;7.25;;;3.85;;
84638;SDS011;74869;51.924;5.712;2024-02-16T01:25:55;4.45;;;3.00;;
84638;SDS011;74869;51.924;5.712;2024-02-16T01:28:20;3.63;;;3.25;;
84638;SDS011;74869;51.924;5.712;2024-02-16T01:30:45;5.72;;;3.35;;
84638;SDS011;74869;51.924;5.712;2024-02-16T01:33:11;5.40;;;3.23;;
84638;SDS011;74869;51.924;5.712;2024-02-16T01:35:36;7.25;;;3.78;;
84638;SDS011;74869;51.924;5.712;2024-02-16T01:38:02;4.22;;;3.55;;
84638;SDS011;74869;51.924;5.712;2024-02-16T01:40:29;6.03;;;3.35;;
84638;SDS011;74869;51.924;5.712;2024-02-16T01:42:56;7.40;;;3.47;;
84638;SDS011;74869;51.924;5.712;2024-02-16T01:45:22;6.47;;;3.60;;
84638;SDS011;74869;51.924;5.712;2024-02-16T01:47:51;7.65;;;3.50;;
84638;SDS011;74869;51.924;5.712;2024-02-16T01:50:18;5.50;;;3.42;;
84638;SDS011;74869;51.924;5.712;2024-02-16T01:52:47;7.63;;;3.70;;
84638;SDS011;74869;51.924;5.712;2024-02-16T01:55:14;5.57;;;3.88;;
84638;SDS011;74869;51.924;5.712;2024-02-16T01:57:47;5.18;;;3.40;;
84638;SDS011;74869;51.924;5.712;2024-02-16T02:00:13;4.15;;;3.15;;
84638;SDS011;74869;51.924;5.712;2024-02-16T02:02:40;9.07;;;3.55;;
84638;SDS011;74869;51.924;5.712;2024-02-16T02:05:06;5.20;;;3.05;;
84638;SDS011;74869;51.924;5.712;2024-02-16T02:07:33;3.78;;;2.90;;
84638;SDS011;74869;51.924;5.712;2024-02-16T02:09:58;5.85;;;3.35;;
84638;SDS011;74869;51.924;5.712;2024-02-16T02:12:23;4.47;;;3.20;;
84638;SDS011;74869;51.924;5.712;2024-02-16T02:14:49;6.22;;;3.53;;
84638;SDS011;74869;51.924;5.712;2024-02-16T02:17:15;6.57;;;3.90;;
84638;SDS011;74869;51.924;5.712;2024-02-16T02:19:41;4.35;;;3.17;;
84638;SDS011;74869;51.924;5.712;2024-02-16T02:22:16;5.38;;;3.50;;
84638;SDS011;74869;51.924;5.712;2024-02-16T02:27:09;7.22;;;3.13;;
84638;SDS011;74869;51.924;5.712;2024-02-16T02:29:35;6.15;;;3.17;;
84638;SDS011;74869;51.924;5.712;2024-02-16T02:32:01;5.57;;;3.38;;
84638;SDS011;74869;51.924;5.712;2024-02-16T02:34:27;5.65;;;3.55;;
84638;SDS011;74869;51.924;5.712;2024-02-16T02:36:53;5.80;;;3.28;;
84638;SDS011;74869;51.924;5.712;2024-02-16T02:39:34;4.60;;;3.17;;
84638;SDS011;74869;51.924;5.712;2024-02-16T02:41:59;5.03;;;3.40;;
84638;SDS011;74869;51.924;5.712;2024-02-16T02:44:25;6.55;;;3.63;;
84638;SDS011;74869;51.924;5.712;2024-02-16T02:46:50;5.65;;;3.55;;
84638;SDS011;74869;51.924;5.712;2024-02-16T02:49:17;5.18;;;3.08;;
84638;SDS011;74869;51.924;5.712;2024-02-16T02:51:42;4.78;;;3.63;;
84638;SDS011;74869;51.924;5.712;2024-02-16T02:54:08;6.80;;;3.90;;
84638;SDS011;74869;51.924;5.712;2024-02-16T02:56:33;3.30;;;2.58;;
84638;SDS011;74869;51.924;5.712;2024-02-16T02:59:00;6.68;;;3.33;;
84638;SDS011;74869;51.924;5.712;2024-02-16T03:01:25;4.80;;;3.20;;
84638;SDS011;74869;51.924;5.712;2024-02-16T03:03:51;5.28;;;3.33;;
84638;SDS011;74869;51.924;5.712;2024-02-16T03:06:18;4.88;;;3.55;;
84638;SDS011;74869;51.924;5.712;2024-02-16T03:08:44;7.70;;;3.78;;
84638;SDS011;74869;51.924;5.712;2024-02-16T03:11:11;5.15;;;2.90;;
84638;SDS011;74869;51.924;5.712;2024-02-16T03:13:38;6.25;;;3.20;;
84638;SDS011;74869;51.924;5.712;2024-02-16T03:16:10;5.18;;;3.33;;
84638;SDS011;74869;51.924;5.712;2024-02-16T03:18:36;6.15;;;3.58;;
84638;SDS011;74869;51.924;5.712;2024-02-16T03:21:01;3.53;;;2.97;;
84638;SDS011;74869;51.924;5.712;2024-02-16T03:23:27;5.10;;;3.42;;
84638;SDS011;74869;51.924;5.712;2024-02-16T03:25:52;6.35;;;3.42;;
84638;SDS011;74869;51.924;5.712;2024-02-16T03:28:18;8.55;;;3.40;;
84638;SDS011;74869;51.924;5.712;2024-02-16T03:30:44;5.68;;;3.80;;
84638;SDS011;74869;51.924;5.712;2024-02-16T03:33:09;5.03;;;3.55;;
84638;SDS011;74869;51.924;5.712;2024-02-16T03:35:42;5.45;;;3.03;;
84638;SDS011;74869;51.924;5.712;2024-02-16T03:38:07;5.35;;;3.33;;
84638;SDS011;74869;51.924;5.712;2024-02-16T03:40:33;5.18;;;3.65;;
84638;SDS011;74869;51.924;5.712;2024-02-16T03:42:58;4.63;;;3.23;;
84638;SDS011;74869;51.924;5.712;2024-02-16T03:45:25;5.45;;;3.65;;
84638;SDS011;74869;51.924;5.712;2024-02-16T03:48:00;5.88;;;3.20;;
84638;SDS011;74869;51.924;5.712;2024-02-16T03:50:25;5.45;;;3.35;;
84638;SDS011;74869;51.924;5.712;2024-02-16T03:52:50;4.85;;;3.22;;
84638;SDS011;74869;51.924;5.712;2024-02-16T03:55:16;5.13;;;3.10;;
84638;SDS011;74869;51.924;5.712;2024-02-16T03:57:41;5.07;;;3.30;;
84638;SDS011;74869;51.924;5.712;2024-02-16T04:00:07;5.60;;;3.58;;
84638;SDS011;74869;51.924;5.712;2024-02-16T04:02:33;7.22;;;4.20;;
84638;SDS011;74869;51.924;5.712;2024-02-16T04:04:58;9.10;;;3.35;;
84638;SDS011;74869;51.924;5.712;2024-02-16T04:07:24;5.07;;;3.03;;
84638;SDS011;74869;51.924;5.712;2024-02-16T04:09:50;5.53;;;3.22;;
84638;SDS011;74869;51.924;5.712;2024-02-16T04:12:16;5.53;;;3.40;;
84638;SDS011;74869;51.924;5.712;2024-02-16T04:14:41;4.97;;;3.00;;
84638;SDS011;74869;51.924;5.712;2024-02-16T04:17:08;4.65;;;3.80;;
84638;SDS011;74869;51.924;5.712;2024-02-16T04:19:33;5.18;;;3.30;;
84638;SDS011;74869;51.924;5.712;2024-02-16T04:22:01;7.20;;;3.15;;
84638;SDS011;74869;51.924;5.712;2024-02-16T04:24:26;5.53;;;3.73;;
84638;SDS011;74869;51.924;5.712;2024-02-16T04:26:51;7.70;;;3.60;;
84638;SDS011;74869;51.924;5.712;2024-02-16T04:29:17;5.78;;;3.20;;
84638;SDS011;74869;51.924;5.712;2024-02-16T04:31:42;5.60;;;3.73;;
84638;SDS011;74869;51.924;5.712;2024-02-16T04:34:10;4.78;;;3.20;;
84638;SDS011;74869;51.924;5.712;2024-02-16T04:36:35;5.07;;;3.60;;
84638;SDS011;74869;51.924;5.712;2024-02-16T04:39:00;5.65;;;3.70;;
84638;SDS011;74869;51.924;5.712;2024-02-16T04:41:26;5.53;;;3.70;;
84638;SDS011;74869;51.924;5.712;2024-02-16T04:43:52;5.50;;;3.15;;
84638;SDS011;74869;51.924;5.712;2024-02-16T04:46:18;5.78;;;3.53;;
84638;SDS011;74869;51.924;5.712;2024-02-16T04:48:44;5.28;;;3.65;;
84638;SDS011;74869;51.924;5.712;2024-02-16T04:51:10;4.67;;;3.57;;
84638;SDS011;74869;51.924;5.712;2024-02-16T04:53:35;4.90;;;3.60;;
84638;SDS011;74869;51.924;5.712;2024-02-16T04:56:01;4.70;;;3.67;;
84638;SDS011;74869;51.924;5.712;2024-02-16T04:58:27;6.68;;;3.50;;
84638;SDS011;74869;51.924;5.712;2024-02-16T05:00:52;4.47;;;3.45;;
84638;SDS011;74869;51.924;5.712;2024-02-16T05:03:25;6.20;;;3.60;;
84638;SDS011;74869;51.924;5.712;2024-02-16T05:05:51;6.03;;;3.85;;
84638;SDS011;74869;51.924;5.712;2024-02-16T05:08:17;4.22;;;3.20;;
84638;SDS011;74869;51.924;5.712;2024-02-16T05:10:43;6.72;;;3.67;;
84638;SDS011;74869;51.924;5.712;2024-02-16T05:13:08;5.57;;;3.53;;
84638;SDS011;74869;51.924;5.712;2024-02-16T05:15:34;5.72;;;3.70;;
84638;SDS011;74869;51.924;5.712;2024-02-16T05:18:00;5.50;;;3.57;;
84638;SDS011;74869;51.924;5.712;2024-02-16T05:20:25;6.05;;;3.72;;
84638;SDS011;74869;51.924;5.712;2024-02-16T05:22:51;4.68;;;3.35;;
84638;SDS011;74869;51.924;5.712;2024-02-16T05:25:17;5.80;;;3.70;;
84638;SDS011;74869;51.924;5.712;2024-02-16T05:27:43;4.05;;;3.10;;
84638;SDS011;74869;51.924;5.712;2024-02-16T05:30:11;5.65;;;3.22;;
84638;SDS011;74869;51.924;5.712;2024-02-16T05:32:39;5.20;;;3.25;;
84638;SDS011;74869;51.924;5.712;2024-02-16T05:35:06;6.97;;;3.67;;
84638;SDS011;74869;51.924;5.712;2024-02-16T05:40:14;7.65;;;3.40;;
84638;SDS011;74869;51.924;5.712;2024-02-16T05:42:52;4.97;;;3.75;;
84638;SDS011;74869;51.924;5.712;2024-02-16T05:45:18;5.47;;;3.63;;
84638;SDS011;74869;51.924;5.712;2024-02-16T05:47:44;5.78;;;3.38;;
84638;SDS011;74869;51.924;5.712;2024-02-16T05:50:11;3.60;;;3.10;;
84638;SDS011;74869;51.924;5.712;2024-02-16T05:52:38;4.70;;;3.20;;
84638;SDS011;74869;51.924;5.712;2024-02-16T05:55:08;4.47;;;3.25;;
84638;SDS011;74869;51.924;5.712;2024-02-16T05:57:35;6.80;;;3.58;;
84638;SDS011;74869;51.924;5.712;2024-02-16T06:00:01;5.40;;;3.15;;
84638;SDS011;74869;51.924;5.712;2024-02-16T06:02:29;4.43;;;3.00;;
84638;SDS011;74869;51.924;5.712;2024-02-16T06:04:55;5.78;;;3.88;;
84638;SDS011;74869;51.924;5.712;2024-02-16T06:07:20;5.10;;;3.20;;
84638;SDS011;74869;51.924;5.712;2024-02-16T06:09:45;9.18;;;3.80;;
84638;SDS011;74869;51.924;5.712;2024-02-16T06:12:11;5.53;;;3.83;;
84638;SDS011;74869;51.924;5.712;2024-02-16T06:14:38;4.63;;;3.50;;
84638;SDS011;74869;51.924;5.712;2024-02-16T06:17:03;5.10;;;4.07;;
84638;SDS011;74869;51.924;5.712;2024-02-16T06:19:29;5.82;;;3.47;;
84638;SDS011;74869;51.924;5.712;2024-02-16T06:21:54;5.25;;;3.75;;
84638;SDS011;74869;51.924;5.712;2024-02-16T06:24:23;5.45;;;3.80;;
84638;SDS011;74869;51.924;5.712;2024-02-16T06:26:49;4.45;;;3.58;;
84638;SDS011;74869;51.924;5.712;2024-02-16T06:29:16;6.38;;;4.03;;
84638;SDS011;74869;51.924;5.712;2024-02-16T06:31:41;5.70;;;3.53;;
84638;SDS011;74869;51.924;5.712;2024-02-16T06:34:06;5.05;;;3.60;;
84638;SDS011;74869;51.924;5.712;2024-02-16T06:36:33;6.38;;;3.15;;
84638;SDS011;74869;51.924;5.712;2024-02-16T06:38:59;4.35;;;3.38;;
84638;SDS011;74869;51.924;5.712;2024-02-16T06:41:24;6.45;;;3.92;;
84638;SDS011;74869;51.924;5.712;2024-02-16T06:43:50;5.40;;;3.70;;
84638;SDS011;74869;51.924;5.712;2024-02-16T06:46:15;6.00;;;3.50;;
84638;SDS011;74869;51.924;5.712;2024-02-16T06:48:40;4.45;;;3.20;;
84638;SDS011;74869;51.924;5.712;2024-02-16T06:51:06;5.73;;;3.60;;
84638;SDS011;74869;51.924;5.712;2024-02-16T06:53:32;4.70;;;3.35;;
84638;SDS011;74869;51.924;5.712;2024-02-16T06:55:58;7.53;;;3.38;;
84638;SDS011;74869;51.924;5.712;2024-02-16T06:58:23;5.90;;;3.40;;
84638;SDS011;74869;51.924;5.712;2024-02-16T07:00:49;6.03;;;3.85;;
84638;SDS011;74869;51.924;5.712;2024-02-16T07:03:14;5.05;;;3.50;;
84638;SDS011;74869;51.924;5.712;2024-02-16T07:05:40;5.15;;;3.53;;
84638;SDS011;74869;51.924;5.712;2024-02-16T07:08:06;5.35;;;3.58;;
84638;SDS011;74869;51.924;5.712;2024-02-16T07:10:32;6.32;;;3.70;;
84638;SDS011;74869;51.924;5.712;2024-02-16T07:12:58;6.95;;;3.63;;
84638;SDS011;74869;51.924;5.712;2024-02-16T07:15:23;5.15;;;3.30;;
84638;SDS011;74869;51.924;5.712;2024-02-16T07:17:49;9.48;;;3.45;;
84638;SDS011;74869;51.924;5.712;2024-02-16T07:20:16;4.88;;;3.13;;
84638;SDS011;74869;51.924;5.712;2024-02-16T07:22:41;7.10;;;3.55;;
84638;SDS011;74869;51.924;5.712;2024-02-16T07:25:16;6.70;;;3.92;;
84638;SDS011;74869;51.924;5.712;2024-02-16T07:27:42;7.53;;;3.72;;
84638;SDS011;74869;51.924;5.712;2024-02-16T07:30:08;6.47;;;3.53;;
84638;SDS011;74869;51.924;5.712;2024-02-16T07:32:36;5.63;;;3.15;;
84638;SDS011;74869;51.924;5.712;2024-02-16T07:35:01;10.43;;;3.65;;
84638;SDS011;74869;51.924;5.712;2024-02-16T07:37:28;6.82;;;3.80;;
84638;SDS011;74869;51.924;5.712;2024-02-16T07:39:55;4.47;;;3.63;;
84638;SDS011;74869;51.924;5.712;2024-02-16T07:42:20;4.80;;;3.30;;
84638;SDS011;74869;51.924;5.712;2024-02-16T07:44:47;5.85;;;3.70;;
84638;SDS011;74869;51.924;5.712;2024-02-16T07:47:13;6.13;;;3.55;;
84638;SDS011;74869;51.924;5.712;2024-02-16T07:49:38;6.50;;;3.50;;
84638;SDS011;74869;51.924;5.712;2024-02-16T07:52:07;5.90;;;3.53;;
84638;SDS011;74869;51.924;5.712;2024-02-16T07:54:34;4.68;;;3.20;;
84638;SDS011;74869;51.924;5.712;2024-02-16T07:56:59;5.45;;;3.55;;
84638;SDS011;74869;51.924;5.712;2024-02-16T07:59:25;6.20;;;3.28;;
84638;SDS011;74869;51.924;5.712;2024-02-16T08:01:50;5.32;;;3.30;;
84638;SDS011;74869;51.924;5.712;2024-02-16T08:04:16;7.22;;;3.90;;
84638;SDS011;74869;51.924;5.712;2024-02-16T08:06:42;6.97;;;3.20;;
84638;SDS011;74869;51.924;5.712;2024-02-16T08:09:08;6.95;;;3.67;;
84638;SDS011;74869;51.924;5.712;2024-02-16T08:11:34;5.32;;;3.60;;
84638;SDS011;74869;51.924;5.712;2024-02-16T08:13:59;5.85;;;3.58;;
84638;SDS011;74869;51.924;5.712;2024-02-16T08:16:26;4.45;;;3.30;;
84638;SDS011;74869;51.924;5.712;2024-02-16T08:18:53;9.30;;;3.88;;
84638;SDS011;74869;51.924;5.712;2024-02-16T08:21:18;7.40;;;3.45;;
84638;SDS011;74869;51.924;5.712;2024-02-16T08:23:44;5.38;;;3.58;;
84638;SDS011;74869;51.924;5.712;2024-02-16T08:26:09;5.77;;;3.63;;
84638;SDS011;74869;51.924;5.712;2024-02-16T08:28:34;5.72;;;3.45;;
84638;SDS011;74869;51.924;5.712;2024-02-16T08:31:02;7.80;;;3.88;;
84638;SDS011;74869;51.924;5.712;2024-02-16T08:33:27;7.38;;;4.22;;
84638;SDS011;74869;51.924;5.712;2024-02-16T08:35:53;5.20;;;3.60;;
84638;SDS011;74869;51.924;5.712;2024-02-16T08:38:18;8.88;;;4.05;;
84638;SDS011;74869;51.924;5.712;2024-02-16T08:40:44;4.78;;;3.72;;
84638;SDS011;74869;51.924;5.712;2024-02-16T08:43:11;6.32;;;3.72;;
84638;SDS011;74869;51.924;5.712;2024-02-16T08:45:37;7.75;;;4.18;;
84638;SDS011;74869;51.924;5.712;2024-02-16T08:48:02;6.67;;;3.77;;
84638;SDS011;74869;51.924;5.712;2024-02-16T08:50:28;6.13;;;3.88;;
84638;SDS011;74869;51.924;5.712;2024-02-16T08:52:54;5.75;;;4.15;;
84638;SDS011;74869;51.924;5.712;2024-02-16T08:55:20;6.25;;;3.70;;
84638;SDS011;74869;51.924;5.712;2024-02-16T08:57:45;8.50;;;4.17;;
84638;SDS011;74869;51.924;5.712;2024-02-16T09:00:12;8.67;;;4.33;;
84638;SDS011;74869;51.924;5.712;2024-02-16T09:02:38;5.80;;;4.00;;
84638;SDS011;74869;51.924;5.712;2024-02-16T09:05:03;6.78;;;4.30;;
84638;SDS011;74869;51.924;5.712;2024-02-16T09:07:29;8.48;;;3.40;;
84638;SDS011;74869;51.924;5.712;2024-02-16T09:09:56;7.13;;;4.32;;
84638;SDS011;74869;51.924;5.712;2024-02-16T09:12:22;8.25;;;3.78;;
84638;SDS011;74869;51.924;5.712;2024-02-16T09:14:47;9.10;;;4.60;;
84638;SDS011;74869;51.924;5.712;2024-02-16T09:17:13;5.93;;;3.95;;
84638;SDS011;74869;51.924;5.712;2024-02-16T09:19:38;7.72;;;3.90;;
84638;SDS011;74869;51.924;5.712;2024-02-16T09:22:04;9.98;;;4.25;;
84638;SDS011;74869;51.924;5.712;2024-02-16T09:24:31;10.73;;;4.25;;
84638;SDS011;74869;51.924;5.712;2024-02-16T09:26:57;5.65;;;4.10;;
84638;SDS011;74869;51.924;5.712;2024-02-16T09:29:23;7.35;;;3.90;;
84638;SDS011;74869;51.924;5.712;2024-02-16T09:31:48;7.07;;;4.07;;
84638;SDS011;74869;51.924;5.712;2024-02-16T09:34:15;6.78;;;4.47;;
84638;SDS011;74869;51.924;5.712;2024-02-16T09:36:47;6.75;;;4.35;;
84638;SDS011;74869;51.924;5.712;2024-02-16T09:39:20;6.28;;;4.00;;
84638;SDS011;74869;51.924;5.712;2024-02-16T09:41:47;9.27;;;4.60;;
84638;SDS011;74869;51.924;5.712;2024-02-16T09:44:17;5.80;;;4.20;;
84638;SDS011;74869;51.924;5.712;2024-02-16T09:46:43;7.55;;;4.40;;
84638;SDS011;74869;51.924;5.712;2024-02-16T09:49:10;6.75;;;4.15;;
84638;SDS011;74869;51.924;5.712;2024-02-16T09:51:36;7.88;;;4.38;;
84638;SDS011;74869;51.924;5.712;2024-02-16T09:54:02;9.98;;;4.80;;
84638;SDS011;74869;51.924;5.712;2024-02-16T09:56:29;8.90;;;4.88;;
84638;SDS011;74869;51.924;5.712;2024-02-16T09:58:54;7.35;;;3.97;;
84638;SDS011;74869;51.924;5.712;2024-02-16T10:01:21;7.88;;;4.05;;
84638;SDS011;74869;51.924;5.712;2024-02-16T10:03:47;7.55;;;4.38;;
84638;SDS011;74869;51.924;5.712;2024-02-16T10:06:20;8.10;;;5.00;;
84638;SDS011;74869;51.924;5.712;2024-02-16T10:08:52;9.02;;;4.80;;
84638;SDS011;74869;51.924;5.712;2024-02-16T10:11:22;7.63;;;4.65;;
84638;SDS011;74869;51.924;5.712;2024-02-16T10:13:58;7.85;;;5.10;;
84638;SDS011;74869;51.924;5.712;2024-02-16T10:16:27;8.25;;;4.90;;
84638;SDS011;74869;51.924;5.712;2024-02-16T10:19:12;8.80;;;4.60;;
84638;SDS011;74869;51.924;5.712;2024-02-16T10:21:37;6.85;;;4.70;;
84638;SDS011;74869;51.924;5.712;2024-02-16T10:24:07;8.15;;;4.47;;
84638;SDS011;74869;51.924;5.712;2024-02-16T10:26:34;9.05;;;4.75;;
84638;SDS011;74869;51.924;5.712;2024-02-16T10:29:04;8.15;;;4.75;;
84638;SDS011;74869;51.924;5.712;2024-02-16T10:31:32;9.63;;;4.82;;
84638;SDS011;74869;51.924;5.712;2024-02-16T10:34:01;6.90;;;4.85;;
84638;SDS011;74869;51.924;5.712;2024-02-16T10:36:32;7.05;;;4.72;;
84638;SDS011;74869;51.924;5.712;2024-02-16T10:38:59;10.10;;;4.80;;
84638;SDS011;74869;51.924;5.712;2024-02-16T10:41:27;7.68;;;5.00;;
84638;SDS011;74869;51.924;5.712;2024-02-16T10:43:55;9.68;;;5.55;;
84638;SDS011;74869;51.924;5.712;2024-02-16T10:46:22;7.43;;;4.97;;
84638;SDS011;74869;51.924;5.712;2024-02-16T10:48:52;11.52;;;5.50;;
84638;SDS011;74869;51.924;5.712;2024-02-16T10:51:19;10.73;;;5.50;;
84638;SDS011;74869;51.924;5.712;2024-02-16T10:53:48;8.18;;;4.90;;
84638;SDS011;74869;51.924;5.712;2024-02-16T10:56:32;8.13;;;5.35;;
84638;SDS011;74869;51.924;5.712;2024-02-16T10:59:04;8.52;;;5.20;;
84638;SDS011;74869;51.924;5.712;2024-02-16T11:01:40;7.95;;;4.85;;
84638;SDS011;74869;51.924;5.712;2024-02-16T11:04:18;9.10;;;5.65;;
84638;SDS011;74869;51.924;5.712;2024-02-16T11:06:49;9.20;;;5.90;;
84638;SDS011;74869;51.924;5.712;2024-02-16T11:09:34;10.85;;;7.18;;
84638;SDS011;74869;51.924;5.712;2024-02-16T11:12:01;9.85;;;6.03;;
84638;SDS011;74869;51.924;5.712;2024-02-16T11:14:37;13.32;;;6.82;;
84638;SDS011;74869;51.924;5.712;2024-02-16T11:17:12;12.70;;;7.32;;
84638;SDS011;74869;51.924;5.712;2024-02-16T11:19:45;10.75;;;6.57;;
84638;SDS011;74869;51.924;5.712;2024-02-16T11:22:16;12.68;;;7.80;;
84638;SDS011;74869;51.924;5.712;2024-02-16T11:24:46;14.02;;;8.10;;
84638;SDS011;74869;51.924;5.712;2024-02-16T11:27:13;14.10;;;8.45;;
84638;SDS011;74869;51.924;5.712;2024-02-16T11:29:47;16.40;;;9.18;;
84638;SDS011;74869;51.924;5.712;2024-02-16T11:32:15;15.98;;;9.07;;
84638;SDS011;74869;51.924;5.712;2024-02-16T11:34:41;12.95;;;9.18;;
84638;SDS011;74869;51.924;5.712;2024-02-16T11:37:06;14.43;;;9.05;;
84638;SDS011;74869;51.924;5.712;2024-02-16T11:39:33;14.02;;;9.38;;
84638;SDS011;74869;51.924;5.712;2024-02-16T11:42:06;15.38;;;10.10;;
84638;SDS011;74869;51.924;5.712;2024-02-16T11:44:35;14.15;;;9.32;;
84638;SDS011;74869;51.924;5.712;2024-02-16T11:47:04;14.75;;;10.02;;
84638;SDS011;74869;51.924;5.712;2024-02-16T11:49:32;14.13;;;9.52;;
84638;SDS011;74869;51.924;5.712;2024-02-16T11:51:59;12.45;;;8.88;;
84638;SDS011;74869;51.924;5.712;2024-02-16T11:54:24;12.93;;;8.75;;
84638;SDS011;74869;51.924;5.712;2024-02-16T11:56:51;12.50;;;8.93;;
84638;SDS011;74869;51.924;5.712;2024-02-16T11:59:18;12.35;;;8.95;;
84638;SDS011;74869;51.924;5.712;2024-02-16T12:01:51;13.23;;;9.15;;
84638;SDS011;74869;51.924;5.712;2024-02-16T12:04:23;10.30;;;8.25;;
84638;SDS011;74869;51.924;5.712;2024-02-16T12:06:55;12.63;;;8.18;;
84638;SDS011;74869;51.924;5.712;2024-02-16T12:09:26;12.30;;;8.55;;
84638;SDS011;74869;51.924;5.712;2024-02-16T12:11:52;10.38;;;7.72;;
84638;SDS011;74869;51.924;5.712;2024-02-16T12:14:18;11.05;;;7.88;;
84638;SDS011;74869;51.924;5.712;2024-02-16T12:16:52;10.60;;;8.40;;
84638;SDS011;74869;51.924;5.712;2024-02-16T12:19:20;11.18;;;7.82;;
84638;SDS011;74869;51.924;5.712;2024-02-16T12:21:57;12.63;;;8.38;;
84638;SDS011;74869;51.924;5.712;2024-02-16T12:24:22;12.13;;;8.32;;
84638;SDS011;74869;51.924;5.712;2024-02-16T12:26:49;13.57;;;8.45;;
84638;SDS011;74869;51.924;5.712;2024-02-16T12:29:16;11.27;;;8.15;;
84638;SDS011;74869;51.924;5.712;2024-02-16T12:31:45;14.15;;;8.98;;
84638;SDS011;74869;51.924;5.712;2024-02-16T12:34:14;12.43;;;8.85;;
84638;SDS011;74869;51.924;5.712;2024-02-16T12:36:40;13.93;;;9.00;;
84638;SDS011;74869;51.924;5.712;2024-02-16T12:39:08;12.18;;;8.05;;
84638;SDS011;74869;51.924;5.712;2024-02-16T12:41:37;13.35;;;9.77;;
84638;SDS011;74869;51.924;5.712;2024-02-16T12:44:03;13.05;;;8.68;;
84638;SDS011;74869;51.924;5.712;2024-02-16T12:46:29;12.10;;;8.88;;
84638;SDS011;74869;51.924;5.712;2024-02-16T12:48:56;13.65;;;9.77;;
84638;SDS011;74869;51.924;5.712;2024-02-16T12:51:22;17.30;;;11.25;;
84638;SDS011;74869;51.924;5.712;2024-02-16T12:53:48;14.90;;;9.82;;
84638;SDS011;74869;51.924;5.712;2024-02-16T12:56:14;16.55;;;10.05;;
84638;SDS011;74869;51.924;5.712;2024-02-16T12:58:40;16.95;;;11.38;;
84638;SDS011;74869;51.924;5.712;2024-02-16T13:01:06;17.73;;;11.10;;
84638;SDS011;74869;51.924;5.712;2024-02-16T13:03:33;16.13;;;11.02;;
84638;SDS011;74869;51.924;5.712;2024-02-16T13:05:59;20.67;;;12.43;;
84638;SDS011;74869;51.924;5.712;2024-02-16T13:08:25;19.08;;;12.32;;
84638;SDS011;74869;51.924;5.712;2024-02-16T13:10:50;18.13;;;11.63;;
84638;SDS011;74869;51.924;5.712;2024-02-16T13:13:15;21.10;;;11.83;;
84638;SDS011;74869;51.924;5.712;2024-02-16T13:15:41;22.15;;;13.00;;
84638;SDS011;74869;51.924;5.712;2024-02-16T13:18:06;19.83;;;12.10;;
84638;SDS011;74869;51.924;5.712;2024-02-16T13:20:33;20.77;;;12.70;;
84638;SDS011;74869;51.924;5.712;2024-02-16T13:23:00;18.88;;;11.55;;
84638;SDS011;74869;51.924;5.712;2024-02-16T13:25:25;16.35;;;11.52;;
84638;SDS011;74869;51.924;5.712;2024-02-16T13:27:51;16.07;;;11.00;;
84638;SDS011;74869;51.924;5.712;2024-02-16T13:30:16;17.83;;;10.35;;
84638;SDS011;74869;51.924;5.712;2024-02-16T13:32:42;14.40;;;9.70;;
84638;SDS011;74869;51.924;5.712;2024-02-16T13:35:07;15.00;;;10.10;;
84638;SDS011;74869;51.924;5.712;2024-02-16T13:37:33;13.70;;;9.20;;
84638;SDS011;74869;51.924;5.712;2024-02-16T13:39:59;13.40;;;9.00;;
84638;SDS011;74869;51.924;5.712;2024-02-16T13:42:26;14.75;;;8.05;;
84638;SDS011;74869;51.924;5.712;2024-02-16T13:44:53;11.25;;;7.78;;
84638;SDS011;74869;51.924;5.712;2024-02-16T13:47:19;10.20;;;7.50;;
84638;SDS011;74869;51.924;5.712;2024-02-16T13:49:44;8.45;;;6.35;;
84638;SDS011;74869;51.924;5.712;2024-02-16T13:52:09;10.90;;;6.90;;
84638;SDS011;74869;51.924;5.712;2024-02-16T13:54:35;9.82;;;7.10;;
84638;SDS011;74869;51.924;5.712;2024-02-16T13:57:01;10.90;;;6.60;;
84638;SDS011;74869;51.924;5.712;2024-02-16T13:59:26;10.52;;;6.53;;
84638;SDS011;74869;51.924;5.712;2024-02-16T14:01:52;8.55;;;6.35;;
84638;SDS011;74869;51.924;5.712;2024-02-16T14:04:18;11.02;;;6.25;;
84638;SDS011;74869;51.924;5.712;2024-02-16T14:06:44;6.30;;;4.93;;
84638;SDS011;74869;51.924;5.712;2024-02-16T14:09:10;5.55;;;4.03;;
84638;SDS011;74869;51.924;5.712;2024-02-16T14:11:38;6.40;;;4.20;;
84638;SDS011;74869;51.924;5.712;2024-02-16T14:14:04;4.82;;;3.58;;
84638;SDS011;74869;51.924;5.712;2024-02-16T14:16:30;5.63;;;4.10;;
84638;SDS011;74869;51.924;5.712;2024-02-16T14:18:56;6.20;;;3.95;;
84638;SDS011;74869;51.924;5.712;2024-02-16T14:21:21;5.28;;;4.00;;
84638;SDS011;74869;51.924;5.712;2024-02-16T14:23:54;5.03;;;3.60;;
84638;SDS011;74869;51.924;5.712;2024-02-16T14:26:19;6.05;;;3.80;;
84638;SDS011;74869;51.924;5.712;2024-02-16T14:28:45;5.72;;;3.38;;
84638;SDS011;74869;51.924;5.712;2024-02-16T14:31:11;4.78;;;3.53;;
84638;SDS011;74869;51.924;5.712;2024-02-16T14:33:39;3.75;;;3.30;;
84638;SDS011;74869;51.924;5.712;2024-02-16T14:36:05;4.20;;;3.25;;
84638;SDS011;74869;51.924;5.712;2024-02-16T14:38:33;7.22;;;3.45;;
84638;SDS011;74869;51.924;5.712;2024-02-16T14:41:06;5.47;;;3.20;;
84638;SDS011;74869;51.924;5.712;2024-02-16T14:43:32;3.50;;;3.15;;
84638;SDS011;74869;51.924;5.712;2024-02-16T14:45:58;3.50;;;2.83;;